sensor_id;sensor_type;location;lat;lon;timestamp;P1;durP1;ratioP1;P2;durP2;ratioP2
58581;SDS011;44361;51.476;5.700;2022-09-27T00:01:00;5.03;;;2.17;;
58581;SDS011;44361;51.476;5.700;2022-09-27T00:03:28;10.30;;;2.17;;
58581;SDS011;44361;51.476;5.700;2022-09-27T00:06:05;9.50;;;2.30;;
58581;SDS011;44361;51.476;5.700;2022-09-27T00:08:32;9.80;;;2.40;;
58581;SDS011;44361;51.476;5.700;2022-09-27T00:10:59;9.05;;;2.20;;
58581;SDS011;44361;51.476;5.700;2022-09-27T00:13:28;11.50;;;2.83;;
58581;SDS011;44361;51.476;5.700;2022-09-27T00:15:58;13.00;;;2.30;;
58581;SDS011;44361;51.476;5.700;2022-09-27T00:18:24;13.85;;;2.22;;
58581;SDS011;44361;51.476;5.700;2022-09-27T00:20:51;6.25;;;2.05;;
58581;SDS011;44361;51.476;5.700;2022-09-27T00:23:17;8.05;;;2.72;;
58581;SDS011;44361;51.476;5.700;2022-09-27T00:25:42;15.55;;;2.85;;
58581;SDS011;44361;51.476;5.700;2022-09-27T00:28:21;9.20;;;2.80;;
58581;SDS011;44361;51.476;5.700;2022-09-27T00:30:47;9.77;;;2.90;;
58581;SDS011;44361;51.476;5.700;2022-09-27T00:33:13;8.90;;;2.67;;
58581;SDS011;44361;51.476;5.700;2022-09-27T00:35:39;9.88;;;2.53;;
58581;SDS011;44361;51.476;5.700;2022-09-27T00:38:04;12.48;;;3.97;;
58581;SDS011;44361;51.476;5.700;2022-09-27T00:40:30;12.38;;;3.03;;
58581;SDS011;44361;51.476;5.700;2022-09-27T00:42:56;6.63;;;2.63;;
58581;SDS011;44361;51.476;5.700;2022-09-27T00:45:22;10.90;;;2.28;;
58581;SDS011;44361;51.476;5.700;2022-09-27T00:47:49;8.10;;;2.50;;
58581;SDS011;44361;51.476;5.700;2022-09-27T00:52:50;8.85;;;1.90;;
58581;SDS011;44361;51.476;5.700;2022-09-27T00:55:33;6.93;;;2.05;;
58581;SDS011;44361;51.476;5.700;2022-09-27T00:58:05;8.73;;;1.90;;
58581;SDS011;44361;51.476;5.700;2022-09-27T01:00:32;4.68;;;1.50;;
58581;SDS011;44361;51.476;5.700;2022-09-27T01:02:59;7.32;;;1.92;;
58581;SDS011;44361;51.476;5.700;2022-09-27T01:05:28;3.67;;;1.55;;
58581;SDS011;44361;51.476;5.700;2022-09-27T01:07:54;7.03;;;1.20;;
58581;SDS011;44361;51.476;5.700;2022-09-27T01:10:24;3.60;;;1.10;;
58581;SDS011;44361;51.476;5.700;2022-09-27T01:12:57;8.27;;;1.80;;
58581;SDS011;44361;51.476;5.700;2022-09-27T01:18:15;5.28;;;1.30;;
58581;SDS011;44361;51.476;5.700;2022-09-27T01:21:33;5.32;;;1.23;;
58581;SDS011;44361;51.476;5.700;2022-09-27T01:31:54;6.47;;;0.70;;
58581;SDS011;44361;51.476;5.700;2022-09-27T01:34:42;4.38;;;1.02;;
58581;SDS011;44361;51.476;5.700;2022-09-27T01:37:39;5.43;;;1.10;;
58581;SDS011;44361;51.476;5.700;2022-09-27T01:40:23;3.72;;;1.00;;
58581;SDS011;44361;51.476;5.700;2022-09-27T01:43:05;4.25;;;0.82;;
58581;SDS011;44361;51.476;5.700;2022-09-27T01:48:48;4.57;;;1.00;;
58581;SDS011;44361;51.476;5.700;2022-09-27T01:51:16;4.28;;;0.70;;
58581;SDS011;44361;51.476;5.700;2022-09-27T01:53:55;3.88;;;0.88;;
58581;SDS011;44361;51.476;5.700;2022-09-27T01:56:33;6.22;;;0.70;;
58581;SDS011;44361;51.476;5.700;2022-09-27T02:01:35;6.38;;;0.88;;
58581;SDS011;44361;51.476;5.700;2022-09-27T02:04:03;2.05;;;0.50;;
58581;SDS011;44361;51.476;5.700;2022-09-27T02:06:33;6.72;;;1.23;;
58581;SDS011;44361;51.476;5.700;2022-09-27T02:09:12;3.85;;;0.80;;
58581;SDS011;44361;51.476;5.700;2022-09-27T02:11:44;5.70;;;0.70;;
58581;SDS011;44361;51.476;5.700;2022-09-27T02:14:16;6.53;;;0.73;;
58581;SDS011;44361;51.476;5.700;2022-09-27T02:16:49;5.28;;;1.10;;
58581;SDS011;44361;51.476;5.700;2022-09-27T02:22:11;3.38;;;0.80;;
58581;SDS011;44361;51.476;5.700;2022-09-27T02:25:03;7.95;;;0.82;;
58581;SDS011;44361;51.476;5.700;2022-09-27T02:30:21;5.95;;;1.00;;
58581;SDS011;44361;51.476;5.700;2022-09-27T02:32:47;6.03;;;1.10;;
58581;SDS011;44361;51.476;5.700;2022-09-27T02:35:23;5.85;;;0.80;;
58581;SDS011;44361;51.476;5.700;2022-09-27T02:37:51;7.35;;;1.20;;
58581;SDS011;44361;51.476;5.700;2022-09-27T02:40:18;3.17;;;0.75;;
58581;SDS011;44361;51.476;5.700;2022-09-27T02:42:44;8.82;;;0.98;;
58581;SDS011;44361;51.476;5.700;2022-09-27T02:45:10;5.80;;;0.85;;
58581;SDS011;44361;51.476;5.700;2022-09-27T02:47:56;2.05;;;0.75;;
58581;SDS011;44361;51.476;5.700;2022-09-27T02:58:54;8.32;;;0.70;;
58581;SDS011;44361;51.476;5.700;2022-09-27T03:01:41;6.63;;;1.08;;
58581;SDS011;44361;51.476;5.700;2022-09-27T03:04:14;5.35;;;0.50;;
58581;SDS011;44361;51.476;5.700;2022-09-27T03:06:47;9.77;;;1.10;;
58581;SDS011;44361;51.476;5.700;2022-09-27T03:09:22;5.43;;;0.57;;
58581;SDS011;44361;51.476;5.700;2022-09-27T03:11:52;4.50;;;0.60;;
58581;SDS011;44361;51.476;5.700;2022-09-27T03:14:17;3.08;;;0.73;;
58581;SDS011;44361;51.476;5.700;2022-09-27T03:16:43;5.80;;;0.60;;
58581;SDS011;44361;51.476;5.700;2022-09-27T03:19:08;1.48;;;0.50;;
58581;SDS011;44361;51.476;5.700;2022-09-27T03:21:34;2.55;;;0.45;;
58581;SDS011;44361;51.476;5.700;2022-09-27T03:24:00;3.63;;;0.70;;
58581;SDS011;44361;51.476;5.700;2022-09-27T03:26:26;9.13;;;0.88;;
58581;SDS011;44361;51.476;5.700;2022-09-27T03:28:51;6.15;;;0.77;;
58581;SDS011;44361;51.476;5.700;2022-09-27T03:31:17;8.55;;;0.85;;
58581;SDS011;44361;51.476;5.700;2022-09-27T03:33:43;3.85;;;0.50;;
58581;SDS011;44361;51.476;5.700;2022-09-27T03:36:08;4.35;;;0.60;;
58581;SDS011;44361;51.476;5.700;2022-09-27T03:38:35;7.15;;;0.77;;
58581;SDS011;44361;51.476;5.700;2022-09-27T03:41:01;5.50;;;1.05;;
58581;SDS011;44361;51.476;5.700;2022-09-27T03:43:27;2.33;;;0.52;;
58581;SDS011;44361;51.476;5.700;2022-09-27T03:45:52;4.40;;;0.50;;
58581;SDS011;44361;51.476;5.700;2022-09-27T03:48:18;7.30;;;1.30;;
58581;SDS011;44361;51.476;5.700;2022-09-27T03:50:44;3.83;;;0.60;;
58581;SDS011;44361;51.476;5.700;2022-09-27T03:53:09;2.60;;;0.75;;
58581;SDS011;44361;51.476;5.700;2022-09-27T03:55:35;6.05;;;0.70;;
58581;SDS011;44361;51.476;5.700;2022-09-27T03:58:00;8.25;;;0.80;;
58581;SDS011;44361;51.476;5.700;2022-09-27T04:00:26;3.63;;;0.73;;
58581;SDS011;44361;51.476;5.700;2022-09-27T04:02:52;4.60;;;0.90;;
58581;SDS011;44361;51.476;5.700;2022-09-27T04:05:17;5.70;;;1.38;;
58581;SDS011;44361;51.476;5.700;2022-09-27T04:07:49;3.30;;;0.80;;
58581;SDS011;44361;51.476;5.700;2022-09-27T04:10:15;3.55;;;0.90;;
58581;SDS011;44361;51.476;5.700;2022-09-27T04:12:41;8.82;;;1.00;;
58581;SDS011;44361;51.476;5.700;2022-09-27T04:15:07;7.03;;;1.15;;
58581;SDS011;44361;51.476;5.700;2022-09-27T04:17:34;5.68;;;0.93;;
58581;SDS011;44361;51.476;5.700;2022-09-27T04:19:59;4.07;;;1.00;;
58581;SDS011;44361;51.476;5.700;2022-09-27T04:22:28;10.27;;;1.38;;
58581;SDS011;44361;51.476;5.700;2022-09-27T04:24:54;5.95;;;0.90;;
58581;SDS011;44361;51.476;5.700;2022-09-27T04:27:19;10.07;;;1.15;;
58581;SDS011;44361;51.476;5.700;2022-09-27T04:29:46;6.15;;;0.88;;
58581;SDS011;44361;51.476;5.700;2022-09-27T04:32:12;3.45;;;0.68;;
58581;SDS011;44361;51.476;5.700;2022-09-27T04:34:38;2.45;;;0.80;;
58581;SDS011;44361;51.476;5.700;2022-09-27T04:37:22;2.15;;;1.05;;
58581;SDS011;44361;51.476;5.700;2022-09-27T04:39:48;3.17;;;0.88;;
58581;SDS011;44361;51.476;5.700;2022-09-27T04:42:14;5.82;;;0.57;;
58581;SDS011;44361;51.476;5.700;2022-09-27T04:44:40;2.03;;;0.70;;
58581;SDS011;44361;51.476;5.700;2022-09-27T04:47:05;1.52;;;0.50;;
58581;SDS011;44361;51.476;5.700;2022-09-27T04:49:31;2.00;;;0.57;;
58581;SDS011;44361;51.476;5.700;2022-09-27T04:51:57;2.97;;;0.73;;
58581;SDS011;44361;51.476;5.700;2022-09-27T04:54:23;3.03;;;0.50;;
58581;SDS011;44361;51.476;5.700;2022-09-27T04:56:48;5.60;;;0.65;;
58581;SDS011;44361;51.476;5.700;2022-09-27T04:59:14;1.67;;;0.40;;
58581;SDS011;44361;51.476;5.700;2022-09-27T05:01:40;2.78;;;0.60;;
58581;SDS011;44361;51.476;5.700;2022-09-27T05:04:05;4.78;;;0.70;;
58581;SDS011;44361;51.476;5.700;2022-09-27T05:06:31;6.30;;;0.70;;
58581;SDS011;44361;51.476;5.700;2022-09-27T05:08:56;4.20;;;1.08;;
58581;SDS011;44361;51.476;5.700;2022-09-27T05:11:22;3.90;;;1.00;;
58581;SDS011;44361;51.476;5.700;2022-09-27T05:13:48;2.67;;;0.60;;
58581;SDS011;44361;51.476;5.700;2022-09-27T05:16:14;5.50;;;0.82;;
58581;SDS011;44361;51.476;5.700;2022-09-27T05:18:40;4.95;;;0.60;;
58581;SDS011;44361;51.476;5.700;2022-09-27T05:21:06;1.55;;;0.50;;
58581;SDS011;44361;51.476;5.700;2022-09-27T05:23:31;2.70;;;0.68;;
58581;SDS011;44361;51.476;5.700;2022-09-27T05:25:57;11.05;;;0.68;;
58581;SDS011;44361;51.476;5.700;2022-09-27T05:28:22;2.67;;;0.63;;
58581;SDS011;44361;51.476;5.700;2022-09-27T05:30:48;2.65;;;0.40;;
58581;SDS011;44361;51.476;5.700;2022-09-27T05:33:14;4.25;;;0.65;;
58581;SDS011;44361;51.476;5.700;2022-09-27T05:35:40;2.30;;;0.70;;
58581;SDS011;44361;51.476;5.700;2022-09-27T05:38:06;4.78;;;0.63;;
58581;SDS011;44361;51.476;5.700;2022-09-27T05:40:32;4.97;;;0.88;;
58581;SDS011;44361;51.476;5.700;2022-09-27T05:42:57;1.60;;;0.28;;
58581;SDS011;44361;51.476;5.700;2022-09-27T05:45:23;6.22;;;0.63;;
58581;SDS011;44361;51.476;5.700;2022-09-27T05:47:53;3.60;;;0.60;;
58581;SDS011;44361;51.476;5.700;2022-09-27T05:50:23;3.13;;;0.52;;
58581;SDS011;44361;51.476;5.700;2022-09-27T05:52:49;4.07;;;0.60;;
58581;SDS011;44361;51.476;5.700;2022-09-27T05:55:16;1.88;;;0.47;;
58581;SDS011;44361;51.476;5.700;2022-09-27T05:57:42;3.72;;;0.30;;
58581;SDS011;44361;51.476;5.700;2022-09-27T06:00:17;2.97;;;0.55;;
58581;SDS011;44361;51.476;5.700;2022-09-27T06:02:42;2.45;;;0.30;;
58581;SDS011;44361;51.476;5.700;2022-09-27T06:05:08;1.85;;;0.32;;
58581;SDS011;44361;51.476;5.700;2022-09-27T06:07:33;3.50;;;0.43;;
58581;SDS011;44361;51.476;5.700;2022-09-27T06:09:59;4.47;;;0.60;;
58581;SDS011;44361;51.476;5.700;2022-09-27T06:12:24;5.57;;;0.65;;
58581;SDS011;44361;51.476;5.700;2022-09-27T06:14:50;2.78;;;0.55;;
58581;SDS011;44361;51.476;5.700;2022-09-27T06:17:16;4.57;;;1.00;;
58581;SDS011;44361;51.476;5.700;2022-09-27T06:19:41;2.50;;;0.70;;
58581;SDS011;44361;51.476;5.700;2022-09-27T06:22:07;4.10;;;0.60;;
58581;SDS011;44361;51.476;5.700;2022-09-27T06:24:32;1.92;;;0.85;;
58581;SDS011;44361;51.476;5.700;2022-09-27T06:26:58;4.15;;;0.73;;
58581;SDS011;44361;51.476;5.700;2022-09-27T06:29:24;3.47;;;0.70;;
58581;SDS011;44361;51.476;5.700;2022-09-27T06:31:49;0.70;;;0.40;;
58581;SDS011;44361;51.476;5.700;2022-09-27T06:34:15;4.05;;;0.60;;
58581;SDS011;44361;51.476;5.700;2022-09-27T06:36:40;1.60;;;0.50;;
58581;SDS011;44361;51.476;5.700;2022-09-27T06:39:07;5.90;;;1.10;;
58581;SDS011;44361;51.476;5.700;2022-09-27T06:41:32;2.38;;;0.68;;
58581;SDS011;44361;51.476;5.700;2022-09-27T06:43:58;1.80;;;0.50;;
58581;SDS011;44361;51.476;5.700;2022-09-27T06:46:23;4.10;;;0.85;;
58581;SDS011;44361;51.476;5.700;2022-09-27T06:48:49;1.73;;;0.60;;
58581;SDS011;44361;51.476;5.700;2022-09-27T06:51:14;2.72;;;0.82;;
58581;SDS011;44361;51.476;5.700;2022-09-27T06:53:40;2.60;;;0.75;;
58581;SDS011;44361;51.476;5.700;2022-09-27T06:56:05;1.23;;;0.57;;
58581;SDS011;44361;51.476;5.700;2022-09-27T06:58:31;4.57;;;0.73;;
58581;SDS011;44361;51.476;5.700;2022-09-27T07:01:15;2.50;;;0.80;;
58581;SDS011;44361;51.476;5.700;2022-09-27T07:03:42;3.17;;;1.08;;
58581;SDS011;44361;51.476;5.700;2022-09-27T07:06:15;5.20;;;1.27;;
58581;SDS011;44361;51.476;5.700;2022-09-27T07:08:49;4.78;;;1.52;;
58581;SDS011;44361;51.476;5.700;2022-09-27T07:11:16;4.50;;;1.30;;
58581;SDS011;44361;51.476;5.700;2022-09-27T07:13:42;2.17;;;1.10;;
58581;SDS011;44361;51.476;5.700;2022-09-27T07:16:12;3.45;;;1.30;;
58581;SDS011;44361;51.476;5.700;2022-09-27T07:18:39;3.67;;;1.48;;
58581;SDS011;44361;51.476;5.700;2022-09-27T07:21:05;4.32;;;1.77;;
58581;SDS011;44361;51.476;5.700;2022-09-27T07:23:32;4.35;;;1.55;;
58581;SDS011;44361;51.476;5.700;2022-09-27T07:26:02;7.18;;;1.58;;
58581;SDS011;44361;51.476;5.700;2022-09-27T07:28:29;2.50;;;1.15;;
58581;SDS011;44361;51.476;5.700;2022-09-27T07:30:55;4.15;;;1.42;;
58581;SDS011;44361;51.476;5.700;2022-09-27T07:33:21;5.95;;;1.42;;
58581;SDS011;44361;51.476;5.700;2022-09-27T07:35:47;3.13;;;1.50;;
58581;SDS011;44361;51.476;5.700;2022-09-27T07:38:12;3.08;;;1.10;;
58581;SDS011;44361;51.476;5.700;2022-09-27T07:40:38;2.25;;;1.23;;
58581;SDS011;44361;51.476;5.700;2022-09-27T07:43:04;3.08;;;1.48;;
58581;SDS011;44361;51.476;5.700;2022-09-27T07:45:30;3.88;;;1.20;;
58581;SDS011;44361;51.476;5.700;2022-09-27T07:47:56;2.28;;;1.58;;
58581;SDS011;44361;51.476;5.700;2022-09-27T07:50:22;4.32;;;1.52;;
58581;SDS011;44361;51.476;5.700;2022-09-27T07:52:48;4.80;;;1.95;;
58581;SDS011;44361;51.476;5.700;2022-09-27T07:55:15;2.10;;;1.55;;
58581;SDS011;44361;51.476;5.700;2022-09-27T07:57:42;5.45;;;1.85;;
58581;SDS011;44361;51.476;5.700;2022-09-27T08:00:10;6.38;;;2.95;;
58581;SDS011;44361;51.476;5.700;2022-09-27T08:02:39;3.00;;;2.45;;
58581;SDS011;44361;51.476;5.700;2022-09-27T08:05:08;3.20;;;2.10;;
58581;SDS011;44361;51.476;5.700;2022-09-27T08:07:36;3.45;;;2.45;;
58581;SDS011;44361;51.476;5.700;2022-09-27T08:10:03;5.05;;;2.78;;
58581;SDS011;44361;51.476;5.700;2022-09-27T08:12:30;4.30;;;2.38;;
58581;SDS011;44361;51.476;5.700;2022-09-27T08:14:55;4.60;;;2.80;;
58581;SDS011;44361;51.476;5.700;2022-09-27T08:17:25;6.38;;;2.55;;
58581;SDS011;44361;51.476;5.700;2022-09-27T08:19:51;8.32;;;2.63;;
58581;SDS011;44361;51.476;5.700;2022-09-27T08:22:17;6.40;;;2.83;;
58581;SDS011;44361;51.476;5.700;2022-09-27T08:24:45;4.75;;;3.15;;
58581;SDS011;44361;51.476;5.700;2022-09-27T08:27:11;5.93;;;3.35;;
58581;SDS011;44361;51.476;5.700;2022-09-27T08:29:37;8.10;;;2.80;;
58581;SDS011;44361;51.476;5.700;2022-09-27T08:32:05;7.70;;;2.75;;
58581;SDS011;44361;51.476;5.700;2022-09-27T08:34:35;7.65;;;3.95;;
58581;SDS011;44361;51.476;5.700;2022-09-27T08:37:01;5.75;;;3.05;;
58581;SDS011;44361;51.476;5.700;2022-09-27T08:39:27;5.15;;;2.92;;
58581;SDS011;44361;51.476;5.700;2022-09-27T08:47:24;5.20;;;2.80;;
58581;SDS011;44361;51.476;5.700;2022-09-27T08:49:54;5.20;;;2.83;;
58581;SDS011;44361;51.476;5.700;2022-09-27T08:52:46;4.00;;;2.75;;
58581;SDS011;44361;51.476;5.700;2022-09-27T08:57:49;4.30;;;3.08;;
58581;SDS011;44361;51.476;5.700;2022-09-27T09:00:19;5.75;;;2.80;;
58581;SDS011;44361;51.476;5.700;2022-09-27T09:02:45;9.52;;;3.08;;
58581;SDS011;44361;51.476;5.700;2022-09-27T09:05:14;7.20;;;3.40;;
58581;SDS011;44361;51.476;5.700;2022-09-27T09:08:17;7.22;;;4.03;;
58581;SDS011;44361;51.476;5.700;2022-09-27T09:16:59;6.25;;;4.43;;
58581;SDS011;44361;51.476;5.700;2022-09-27T09:25:05;7.80;;;6.05;;
58581;SDS011;44361;51.476;5.700;2022-09-27T09:30:27;9.52;;;6.30;;
58581;SDS011;44361;51.476;5.700;2022-09-27T09:35:49;11.00;;;7.40;;
58581;SDS011;44361;51.476;5.700;2022-09-27T09:38:23;11.30;;;6.97;;
58581;SDS011;44361;51.476;5.700;2022-09-27T09:43:51;10.15;;;6.22;;
58581;SDS011;44361;51.476;5.700;2022-09-27T09:46:30;11.93;;;6.93;;
58581;SDS011;44361;51.476;5.700;2022-09-27T09:49:04;9.88;;;7.03;;
58581;SDS011;44361;51.476;5.700;2022-09-27T09:51:48;10.98;;;6.57;;
58581;SDS011;44361;51.476;5.700;2022-09-27T09:56:55;11.95;;;7.03;;
58581;SDS011;44361;51.476;5.700;2022-09-27T09:59:42;11.55;;;7.13;;
58581;SDS011;44361;51.476;5.700;2022-09-27T10:02:36;10.80;;;7.22;;
58581;SDS011;44361;51.476;5.700;2022-09-27T10:05:04;10.70;;;7.67;;
58581;SDS011;44361;51.476;5.700;2022-09-27T10:07:31;10.05;;;7.32;;
58581;SDS011;44361;51.476;5.700;2022-09-27T10:09:59;13.35;;;8.32;;
58581;SDS011;44361;51.476;5.700;2022-09-27T10:12:27;12.75;;;8.63;;
58581;SDS011;44361;51.476;5.700;2022-09-27T10:14:53;12.85;;;8.45;;
58581;SDS011;44361;51.476;5.700;2022-09-27T10:17:22;17.80;;;9.32;;
58581;SDS011;44361;51.476;5.700;2022-09-27T10:19:51;12.23;;;9.07;;
58581;SDS011;44361;51.476;5.700;2022-09-27T10:22:28;11.52;;;8.35;;
58581;SDS011;44361;51.476;5.700;2022-09-27T10:25:01;9.32;;;6.15;;
58581;SDS011;44361;51.476;5.700;2022-09-27T10:30:21;6.93;;;5.35;;
58581;SDS011;44361;51.476;5.700;2022-09-27T10:32:50;9.40;;;5.20;;
58581;SDS011;44361;51.476;5.700;2022-09-27T10:35:30;9.38;;;4.85;;
58581;SDS011;44361;51.476;5.700;2022-09-27T10:38:11;8.27;;;4.57;;
58581;SDS011;44361;51.476;5.700;2022-09-27T10:40:41;4.90;;;3.80;;
58581;SDS011;44361;51.476;5.700;2022-09-27T10:43:23;4.80;;;3.25;;
58581;SDS011;44361;51.476;5.700;2022-09-27T10:48:31;7.88;;;3.40;;
58581;SDS011;44361;51.476;5.700;2022-09-27T10:51:04;5.03;;;3.30;;
58581;SDS011;44361;51.476;5.700;2022-09-27T10:53:31;5.05;;;3.17;;
58581;SDS011;44361;51.476;5.700;2022-09-27T10:55:59;5.50;;;2.80;;
58581;SDS011;44361;51.476;5.700;2022-09-27T10:58:35;3.17;;;2.03;;
58581;SDS011;44361;51.476;5.700;2022-09-27T11:01:07;3.20;;;1.10;;
58581;SDS011;44361;51.476;5.700;2022-09-27T11:03:36;1.92;;;1.25;;
58581;SDS011;44361;51.476;5.700;2022-09-27T11:08:49;1.98;;;0.90;;
58581;SDS011;44361;51.476;5.700;2022-09-27T11:11:20;2.38;;;0.90;;
58581;SDS011;44361;51.476;5.700;2022-09-27T11:14:05;1.08;;;0.80;;
58581;SDS011;44361;51.476;5.700;2022-09-27T11:16:58;1.73;;;0.68;;
58581;SDS011;44361;51.476;5.700;2022-09-27T11:25:09;0.60;;;0.50;;
58581;SDS011;44361;51.476;5.700;2022-09-27T11:33:37;1.85;;;0.55;;
58581;SDS011;44361;51.476;5.700;2022-09-27T11:36:32;0.43;;;0.28;;
58581;SDS011;44361;51.476;5.700;2022-09-27T11:39:22;0.73;;;0.30;;
58581;SDS011;44361;51.476;5.700;2022-09-27T11:42:04;0.50;;;0.40;;
58581;SDS011;44361;51.476;5.700;2022-09-27T12:01:45;2.45;;;0.60;;
58581;SDS011;44361;51.476;5.700;2022-09-27T12:07:18;1.95;;;0.38;;
58581;SDS011;44361;51.476;5.700;2022-09-27T12:10:00;2.60;;;0.45;;
58581;SDS011;44361;51.476;5.700;2022-09-27T12:12:33;0.98;;;0.38;;
58581;SDS011;44361;51.476;5.700;2022-09-27T12:15:12;1.70;;;0.40;;
58581;SDS011;44361;51.476;5.700;2022-09-27T12:17:42;2.75;;;0.30;;
58581;SDS011;44361;51.476;5.700;2022-09-27T12:20:20;3.88;;;0.55;;
58581;SDS011;44361;51.476;5.700;2022-09-27T12:25:42;0.80;;;0.20;;
58581;SDS011;44361;51.476;5.700;2022-09-27T12:30:45;1.45;;;0.20;;
58581;SDS011;44361;51.476;5.700;2022-09-27T12:35:50;2.25;;;0.50;;
58581;SDS011;44361;51.476;5.700;2022-09-27T12:38:21;2.47;;;1.00;;
58581;SDS011;44361;51.476;5.700;2022-09-27T12:41:10;1.30;;;0.40;;
58581;SDS011;44361;51.476;5.700;2022-09-27T12:43:41;3.53;;;0.52;;
58581;SDS011;44361;51.476;5.700;2022-09-27T12:46:12;0.70;;;0.40;;
58581;SDS011;44361;51.476;5.700;2022-09-27T12:51:35;0.88;;;0.30;;
58581;SDS011;44361;51.476;5.700;2022-09-27T12:56:39;0.43;;;0.25;;
58581;SDS011;44361;51.476;5.700;2022-09-27T12:59:21;1.33;;;0.40;;
58581;SDS011;44361;51.476;5.700;2022-09-27T13:10:51;5.65;;;1.17;;
58581;SDS011;44361;51.476;5.700;2022-09-27T13:13:31;2.30;;;0.88;;
58581;SDS011;44361;51.476;5.700;2022-09-27T13:15:59;2.78;;;1.13;;
58581;SDS011;44361;51.476;5.700;2022-09-27T13:18:30;1.85;;;0.90;;
58581;SDS011;44361;51.476;5.700;2022-09-27T13:21:52;1.85;;;0.70;;
58581;SDS011;44361;51.476;5.700;2022-09-27T13:32:31;1.92;;;0.90;;
58581;SDS011;44361;51.476;5.700;2022-09-27T13:35:11;2.17;;;0.75;;
58581;SDS011;44361;51.476;5.700;2022-09-27T13:45:32;1.52;;;0.60;;
58581;SDS011;44361;51.476;5.700;2022-09-27T13:48:01;2.60;;;0.50;;
58581;SDS011;44361;51.476;5.700;2022-09-27T13:50:44;1.73;;;0.50;;
58581;SDS011;44361;51.476;5.700;2022-09-27T13:53:35;3.25;;;0.70;;
58581;SDS011;44361;51.476;5.700;2022-09-27T13:56:04;3.88;;;0.57;;
58581;SDS011;44361;51.476;5.700;2022-09-27T14:01:29;1.67;;;0.55;;
58581;SDS011;44361;51.476;5.700;2022-09-27T14:04:00;3.20;;;0.80;;
58581;SDS011;44361;51.476;5.700;2022-09-27T14:06:34;3.63;;;0.65;;
58581;SDS011;44361;51.476;5.700;2022-09-27T14:09:12;2.92;;;0.90;;
58581;SDS011;44361;51.476;5.700;2022-09-27T14:11:51;2.17;;;0.73;;
58581;SDS011;44361;51.476;5.700;2022-09-27T14:14:23;1.73;;;0.82;;
58581;SDS011;44361;51.476;5.700;2022-09-27T14:16:52;2.13;;;0.80;;
58581;SDS011;44361;51.476;5.700;2022-09-27T14:19:19;3.95;;;1.13;;
58581;SDS011;44361;51.476;5.700;2022-09-27T14:21:47;4.72;;;1.20;;
58581;SDS011;44361;51.476;5.700;2022-09-27T14:24:18;2.90;;;0.75;;
58581;SDS011;44361;51.476;5.700;2022-09-27T14:26:45;2.75;;;0.90;;
58581;SDS011;44361;51.476;5.700;2022-09-27T14:29:16;3.90;;;1.05;;
58581;SDS011;44361;51.476;5.700;2022-09-27T14:31:43;2.63;;;1.08;;
58581;SDS011;44361;51.476;5.700;2022-09-27T14:34:09;3.42;;;0.88;;
58581;SDS011;44361;51.476;5.700;2022-09-27T14:36:36;4.35;;;1.00;;
58581;SDS011;44361;51.476;5.700;2022-09-27T14:39:22;4.10;;;1.13;;
58581;SDS011;44361;51.476;5.700;2022-09-27T14:41:54;4.07;;;1.20;;
58581;SDS011;44361;51.476;5.700;2022-09-27T14:44:19;5.68;;;1.20;;
58581;SDS011;44361;51.476;5.700;2022-09-27T14:46:46;2.13;;;0.90;;
58581;SDS011;44361;51.476;5.700;2022-09-27T14:49:22;2.55;;;0.90;;
58581;SDS011;44361;51.476;5.700;2022-09-27T14:51:52;1.75;;;0.90;;
58581;SDS011;44361;51.476;5.700;2022-09-27T14:54:20;2.97;;;1.20;;
58581;SDS011;44361;51.476;5.700;2022-09-27T14:56:49;3.20;;;1.30;;
58581;SDS011;44361;51.476;5.700;2022-09-27T14:59:16;4.88;;;1.35;;
58581;SDS011;44361;51.476;5.700;2022-09-27T15:01:58;2.85;;;1.55;;
58581;SDS011;44361;51.476;5.700;2022-09-27T15:04:28;5.53;;;2.25;;
58581;SDS011;44361;51.476;5.700;2022-09-27T15:06:59;5.75;;;1.60;;
58581;SDS011;44361;51.476;5.700;2022-09-27T15:09:26;3.03;;;1.40;;
58581;SDS011;44361;51.476;5.700;2022-09-27T15:11:54;6.32;;;1.60;;
58581;SDS011;44361;51.476;5.700;2022-09-27T15:14:24;6.63;;;1.70;;
58581;SDS011;44361;51.476;5.700;2022-09-27T15:16:56;4.85;;;1.50;;
58581;SDS011;44361;51.476;5.700;2022-09-27T15:19:28;5.03;;;1.38;;
58581;SDS011;44361;51.476;5.700;2022-09-27T15:21:55;3.63;;;1.20;;
58581;SDS011;44361;51.476;5.700;2022-09-27T15:24:44;5.25;;;1.23;;
58581;SDS011;44361;51.476;5.700;2022-09-27T15:29:41;2.40;;;0.95;;
58581;SDS011;44361;51.476;5.700;2022-09-27T15:32:16;3.03;;;1.00;;
58581;SDS011;44361;51.476;5.700;2022-09-27T15:34:44;4.47;;;1.50;;
58581;SDS011;44361;51.476;5.700;2022-09-27T15:37:22;2.88;;;0.65;;
58581;SDS011;44361;51.476;5.700;2022-09-27T15:40:15;3.60;;;0.90;;
58581;SDS011;44361;51.476;5.700;2022-09-27T15:43:17;2.70;;;0.68;;
58581;SDS011;44361;51.476;5.700;2022-09-27T15:45:53;3.38;;;0.80;;
58581;SDS011;44361;51.476;5.700;2022-09-27T15:50:44;3.00;;;1.08;;
58581;SDS011;44361;51.476;5.700;2022-09-27T15:53:12;1.83;;;0.80;;
58581;SDS011;44361;51.476;5.700;2022-09-27T15:56:00;4.90;;;1.10;;
58581;SDS011;44361;51.476;5.700;2022-09-27T15:58:27;3.83;;;1.05;;
58581;SDS011;44361;51.476;5.700;2022-09-27T16:00:58;4.68;;;1.00;;
58581;SDS011;44361;51.476;5.700;2022-09-27T16:03:29;3.33;;;1.17;;
58581;SDS011;44361;51.476;5.700;2022-09-27T16:05:56;4.78;;;1.10;;
58581;SDS011;44361;51.476;5.700;2022-09-27T16:08:24;9.50;;;1.52;;
58581;SDS011;44361;51.476;5.700;2022-09-27T16:10:54;5.40;;;1.20;;
58581;SDS011;44361;51.476;5.700;2022-09-27T16:13:22;7.80;;;1.50;;
58581;SDS011;44361;51.476;5.700;2022-09-27T16:15:49;5.25;;;1.23;;
58581;SDS011;44361;51.476;5.700;2022-09-27T16:18:15;2.45;;;1.08;;
58581;SDS011;44361;51.476;5.700;2022-09-27T16:20:41;1.70;;;0.88;;
58581;SDS011;44361;51.476;5.700;2022-09-27T16:23:06;4.45;;;1.35;;
58581;SDS011;44361;51.476;5.700;2022-09-27T16:25:32;5.50;;;1.15;;
58581;SDS011;44361;51.476;5.700;2022-09-27T16:28:01;2.38;;;1.20;;
58581;SDS011;44361;51.476;5.700;2022-09-27T16:30:27;3.90;;;1.40;;
58581;SDS011;44361;51.476;5.700;2022-09-27T16:32:57;3.80;;;1.25;;
58581;SDS011;44361;51.476;5.700;2022-09-27T16:35:23;1.73;;;1.27;;
58581;SDS011;44361;51.476;5.700;2022-09-27T16:37:49;3.22;;;1.52;;
58581;SDS011;44361;51.476;5.700;2022-09-27T16:40:16;5.53;;;1.58;;
58581;SDS011;44361;51.476;5.700;2022-09-27T16:42:42;3.40;;;1.80;;
58581;SDS011;44361;51.476;5.700;2022-09-27T16:45:09;4.90;;;2.13;;
58581;SDS011;44361;51.476;5.700;2022-09-27T16:47:35;4.78;;;1.83;;
58581;SDS011;44361;51.476;5.700;2022-09-27T16:50:01;4.63;;;1.60;;
58581;SDS011;44361;51.476;5.700;2022-09-27T16:52:46;6.20;;;1.70;;
58581;SDS011;44361;51.476;5.700;2022-09-27T16:55:14;4.60;;;1.67;;
58581;SDS011;44361;51.476;5.700;2022-09-27T16:57:45;5.05;;;1.67;;
58581;SDS011;44361;51.476;5.700;2022-09-27T17:00:11;3.88;;;1.50;;
58581;SDS011;44361;51.476;5.700;2022-09-27T17:02:37;6.47;;;1.40;;
58581;SDS011;44361;51.476;5.700;2022-09-27T17:05:03;2.97;;;1.55;;
58581;SDS011;44361;51.476;5.700;2022-09-27T17:07:29;6.35;;;1.40;;
58581;SDS011;44361;51.476;5.700;2022-09-27T17:09:54;3.40;;;1.55;;
58581;SDS011;44361;51.476;5.700;2022-09-27T17:12:21;3.72;;;1.33;;
58581;SDS011;44361;51.476;5.700;2022-09-27T17:14:47;6.75;;;1.52;;
58581;SDS011;44361;51.476;5.700;2022-09-27T17:17:12;4.03;;;1.48;;
58581;SDS011;44361;51.476;5.700;2022-09-27T17:19:38;7.43;;;1.73;;
58581;SDS011;44361;51.476;5.700;2022-09-27T17:22:05;4.35;;;1.50;;
58581;SDS011;44361;51.476;5.700;2022-09-27T17:24:31;2.50;;;1.25;;
58581;SDS011;44361;51.476;5.700;2022-09-27T17:26:57;5.80;;;1.42;;
58581;SDS011;44361;51.476;5.700;2022-09-27T17:29:22;2.88;;;1.20;;
58581;SDS011;44361;51.476;5.700;2022-09-27T17:31:49;3.78;;;1.40;;
58581;SDS011;44361;51.476;5.700;2022-09-27T17:34:14;9.88;;;1.23;;